createdAt,value
2023-02-16T00:02:09.995Z,2.38
2023-02-16T00:04:36.981Z,2.25
2023-02-16T00:07:03.545Z,2.41
2023-02-16T00:09:30.184Z,2.44
2023-02-16T00:12:16.629Z,2.45
2023-02-16T00:14:43.234Z,2.30
2023-02-16T00:17:11.154Z,2.42
2023-02-16T00:19:40.439Z,2.44
2023-02-16T00:22:08.325Z,2.41
2023-02-16T00:24:35.277Z,2.13
2023-02-16T00:27:01.982Z,1.76
2023-02-16T00:29:34.765Z,1.75
2023-02-16T00:32:03.637Z,1.87
2023-02-16T00:34:40.150Z,1.83
2023-02-16T00:37:09.650Z,1.72
2023-02-16T00:39:37.085Z,1.60
2023-02-16T00:42:19.600Z,1.42
2023-02-16T00:44:49.033Z,1.15
2023-02-16T00:47:20.466Z,0.86
2023-02-16T00:49:49.419Z,0.73
2023-02-16T00:52:29.487Z,0.74
2023-02-16T00:54:57.366Z,0.86
2023-02-16T00:57:25.806Z,0.98
2023-02-16T01:00:00.555Z,0.95
2023-02-16T01:02:27.821Z,0.63
2023-02-16T01:04:55.548Z,0.50
2023-02-16T01:07:41.373Z,0.39
2023-02-16T01:10:27.037Z,0.52
2023-02-16T01:12:53.675Z,0.42
2023-02-16T01:15:23.270Z,0.31
2023-02-16T01:17:51.537Z,0.27
2023-02-16T01:20:21.313Z,0.39
2023-02-16T01:22:48.251Z,0.33
2023-02-16T01:25:15.873Z,0.48
2023-02-16T01:27:43.465Z,0.36
2023-02-16T01:30:16.686Z,0.35
2023-02-16T01:32:51.217Z,0.47
2023-02-16T01:35:19.772Z,0.63
2023-02-16T01:37:46.439Z,0.66
2023-02-16T01:40:26.584Z,0.90
2023-02-16T01:42:58.611Z,0.93
2023-02-16T01:45:38.852Z,0.82
2023-02-16T01:48:13.578Z,1.01
2023-02-16T01:50:53.498Z,0.70
2023-02-16T01:53:26.969Z,0.76
2023-02-16T01:55:58.779Z,0.75
2023-02-16T01:58:35.543Z,0.76
2023-02-16T02:01:02.417Z,0.70
2023-02-16T02:03:53.671Z,0.78
2023-02-16T02:06:33.738Z,0.57
2023-02-16T02:09:07.777Z,0.73
2023-02-16T02:12:00.580Z,0.81
2023-02-16T02:14:33.211Z,1.16
2023-02-16T02:17:08.145Z,1.10
2023-02-16T02:19:55.908Z,1.09
2023-02-16T02:22:52.276Z,1.07
2023-02-16T02:25:40.734Z,1.12
2023-02-16T02:28:17.423Z,1.17
2023-02-16T02:30:51.806Z,1.21
2023-02-16T02:33:28.505Z,0.96
2023-02-16T02:36:21.962Z,0.88
2023-02-16T02:39:19.842Z,1.14
2023-02-16T02:42:06.311Z,1.07
2023-02-16T02:44:46.756Z,1.10
2023-02-16T02:47:13.666Z,1.28
2023-02-16T02:49:49.539Z,1.43
2023-02-16T02:52:16.350Z,1.16
2023-02-16T02:55:02.252Z,1.38
2023-02-16T02:58:03.007Z,1.13
2023-02-16T03:00:41.918Z,1.21
2023-02-16T03:03:34.110Z,1.23
2023-02-16T03:06:13.403Z,1.22
2023-02-16T03:08:43.249Z,1.21
2023-02-16T03:11:34.557Z,1.30
2023-02-16T03:14:05.912Z,0.58
2023-02-16T03:16:44.665Z,1.02
2023-02-16T03:19:33.086Z,1.35
2023-02-16T03:22:19.267Z,1.30
2023-02-16T03:25:05.029Z,1.23
2023-02-16T03:27:59.738Z,1.37
2023-02-16T03:30:27.991Z,1.09
2023-02-16T03:32:54.901Z,1.22
2023-02-16T03:35:21.940Z,1.16
2023-02-16T03:37:48.692Z,1.17
2023-02-16T03:40:28.940Z,1.33
2023-02-16T03:42:57.874Z,1.16
2023-02-16T03:45:25.456Z,1.32
2023-02-16T03:47:52.740Z,1.41
2023-02-16T03:50:19.493Z,1.62
2023-02-16T03:52:46.094Z,1.58
2023-02-16T03:55:12.796Z,1.60
2023-02-16T03:57:39.398Z,1.60
2023-02-16T04:00:06.946Z,1.47
2023-02-16T04:02:40.042Z,1.33
2023-02-16T04:05:06.944Z,1.13
2023-02-16T04:07:33.650Z,1.27
2023-02-16T04:10:00.262Z,1.54
2023-02-16T04:12:39.039Z,1.35
2023-02-16T04:15:18.010Z,1.46
2023-02-16T04:17:45.033Z,1.76
2023-02-16T04:20:16.155Z,1.62
2023-02-16T04:22:43.853Z,1.16
2023-02-16T04:25:11.371Z,1.35
2023-02-16T04:27:40.628Z,1.37
2023-02-16T04:30:09.308Z,1.37
2023-02-16T04:32:35.911Z,1.31
2023-02-16T04:35:02.567Z,1.43
2023-02-16T04:37:31.081Z,1.11
2023-02-16T04:39:57.727Z,1.41
2023-02-16T04:42:24.514Z,1.63
2023-02-16T04:44:51.288Z,1.68
2023-02-16T04:47:18.133Z,1.56
2023-02-16T04:49:44.818Z,1.65
2023-02-16T04:52:13.298Z,1.61
2023-02-16T04:54:40.254Z,1.72
2023-02-16T04:57:06.911Z,1.63
2023-02-16T04:59:33.493Z,1.73
2023-02-16T05:02:00.180Z,1.54
2023-02-16T05:04:26.794Z,1.77
2023-02-16T05:06:53.511Z,1.69
2023-02-16T05:09:20.799Z,1.62
2023-02-16T05:12:05.788Z,1.76
2023-02-16T05:14:47.211Z,1.65
2023-02-16T05:17:19.532Z,1.81
2023-02-16T05:19:48.931Z,1.76
2023-02-16T05:22:16.063Z,1.68
2023-02-16T05:24:43.767Z,1.65
2023-02-16T05:27:16.847Z,1.91
2023-02-16T05:29:43.664Z,1.66
2023-02-16T05:32:10.946Z,1.57
2023-02-16T05:34:37.770Z,1.68
2023-02-16T05:37:05.084Z,1.90
2023-02-16T05:39:31.918Z,2.01
2023-02-16T05:41:58.597Z,1.85
2023-02-16T05:44:25.244Z,1.76
2023-02-16T05:46:51.888Z,1.73
2023-02-16T05:49:18.721Z,1.67
2023-02-16T05:51:45.711Z,1.79
2023-02-16T05:54:17.333Z,1.85
2023-02-16T05:56:46.230Z,1.69
2023-02-16T05:59:13.532Z,1.85
2023-02-16T06:01:41.018Z,1.84
2023-02-16T06:04:13.127Z,1.98
2023-02-16T06:06:40.452Z,1.82
2023-02-16T06:09:08.869Z,1.63
2023-02-16T06:11:35.873Z,1.81
2023-02-16T06:14:08.703Z,1.86
2023-02-16T06:16:37.267Z,1.73
2023-02-16T06:19:04.182Z,1.83
2023-02-16T06:21:31.002Z,1.77
2023-02-16T06:23:57.892Z,1.78
2023-02-16T06:26:25.172Z,1.88
2023-02-16T06:28:51.810Z,1.86
2023-02-16T06:31:18.609Z,1.61
2023-02-16T06:33:45.477Z,1.95
2023-02-16T06:36:12.356Z,1.97
2023-02-16T06:38:39.100Z,1.92
2023-02-16T06:41:06.374Z,1.94
2023-02-16T06:43:33.398Z,1.92
2023-02-16T06:46:00.292Z,1.84
2023-02-16T06:48:26.920Z,1.91
2023-02-16T06:51:11.953Z,1.93
2023-02-16T06:53:38.601Z,1.86
2023-02-16T06:56:05.496Z,1.81
2023-02-16T06:58:32.156Z,1.87
2023-02-16T07:00:58.809Z,2.03
2023-02-16T07:03:25.529Z,2.13
2023-02-16T07:05:52.218Z,2.03
2023-02-16T07:08:37.207Z,2.11
2023-02-16T07:11:22.309Z,2.21
2023-02-16T07:13:49.162Z,2.23
2023-02-16T07:16:34.153Z,2.28
2023-02-16T07:19:16.417Z,2.15
2023-02-16T07:21:43.666Z,2.19
2023-02-16T07:24:10.440Z,2.19
2023-02-16T07:26:38.682Z,2.00
2023-02-16T07:29:05.356Z,2.11
2023-02-16T07:31:32.038Z,2.15
2023-02-16T07:33:58.784Z,1.85
2023-02-16T07:36:25.487Z,1.95
2023-02-16T07:38:52.112Z,2.20
2023-02-16T07:41:18.675Z,2.39
2023-02-16T07:43:45.252Z,2.35
2023-02-16T07:46:11.940Z,2.46
2023-02-16T07:48:38.786Z,2.27
2023-02-16T07:51:06.008Z,2.36
2023-02-16T07:53:32.925Z,2.51
2023-02-16T07:55:59.656Z,2.37
2023-02-16T07:58:29.267Z,2.47
2023-02-16T08:01:16.124Z,2.50
2023-02-16T08:03:43.145Z,2.08
2023-02-16T08:06:09.715Z,2.44
2023-02-16T08:08:36.655Z,2.48
2023-02-16T08:11:18.606Z,2.53
2023-02-16T08:13:45.398Z,2.66
2023-02-16T08:16:18.045Z,2.51
2023-02-16T08:19:04.422Z,2.53
2023-02-16T08:21:33.594Z,2.43
2023-02-16T08:24:03.566Z,2.57
2023-02-16T08:26:40.070Z,2.55
2023-02-16T08:29:25.781Z,2.64
2023-02-16T08:31:53.820Z,2.70
2023-02-16T08:34:40.413Z,2.75
2023-02-16T08:37:26.831Z,2.68
2023-02-16T08:39:53.902Z,2.61
2023-02-16T08:42:21.189Z,2.74
2023-02-16T08:44:48.144Z,2.97
2023-02-16T08:47:16.680Z,2.85
2023-02-16T08:49:44.444Z,2.93
2023-02-16T08:52:12.430Z,3.08
2023-02-16T08:54:39.809Z,3.10
2023-02-16T08:57:06.695Z,2.78
2023-02-16T08:59:34.805Z,3.08
2023-02-16T09:02:01.988Z,3.06
2023-02-16T09:04:29.160Z,2.87
2023-02-16T09:06:56.508Z,2.77
2023-02-16T09:09:23.409Z,3.05
2023-02-16T09:11:50.085Z,3.06
2023-02-16T09:14:35.368Z,3.23
2023-02-16T09:17:02.972Z,3.56
2023-02-16T09:19:29.716Z,3.30
2023-02-16T09:22:15.254Z,3.52
2023-02-16T09:24:41.886Z,3.63
2023-02-16T09:27:09.406Z,3.80
2023-02-16T09:29:36.004Z,3.77
2023-02-16T09:32:02.734Z,3.93
2023-02-16T09:34:29.800Z,4.34
2023-02-16T09:36:56.532Z,4.60
2023-02-16T09:39:23.173Z,4.70
2023-02-16T09:42:01.547Z,4.44
2023-02-16T09:44:37.437Z,4.43
2023-02-16T09:47:15.404Z,4.47
2023-02-16T09:49:45.009Z,4.84
2023-02-16T09:52:27.073Z,5.34
2023-02-16T09:55:08.031Z,5.21
2023-02-16T09:57:55.577Z,5.19
2023-02-16T10:00:34.534Z,5.44
2023-02-16T10:03:19.069Z,5.70
2023-02-16T10:05:48.677Z,5.63
2023-02-16T10:08:24.778Z,5.92
2023-02-16T10:11:33.291Z,5.90
2023-02-16T10:14:07.961Z,6.00
2023-02-16T10:16:42.697Z,6.28
2023-02-16T10:19:22.529Z,6.16
2023-02-16T10:21:55.840Z,6.34
2023-02-16T10:24:25.934Z,6.37
2023-02-16T10:27:02.517Z,6.33
2023-02-16T10:29:29.440Z,6.29
2023-02-16T10:32:12.847Z,6.45
2023-02-16T10:35:21.804Z,6.73
2023-02-16T10:38:08.410Z,7.09
2023-02-16T10:41:27.942Z,7.15
2023-02-16T10:44:04.716Z,7.40
2023-02-16T10:46:57.036Z,7.62
2023-02-16T10:49:43.164Z,7.45
2023-02-16T10:52:11.542Z,7.53
2023-02-16T10:54:56.782Z,7.18
2023-02-16T10:57:30.917Z,6.94
2023-02-16T11:00:01.600Z,6.91
2023-02-16T11:02:51.301Z,6.88
2023-02-16T11:05:31.132Z,7.17
2023-02-16T11:08:01.757Z,7.26
2023-02-16T11:10:46.955Z,7.31
2023-02-16T11:13:34.611Z,7.41
2023-02-16T11:16:09.612Z,7.43
2023-02-16T11:18:40.102Z,7.28
2023-02-16T11:21:08.661Z,7.31
2023-02-16T11:24:02.104Z,7.46
2023-02-16T11:26:28.886Z,7.45
2023-02-16T11:29:13.294Z,7.53
2023-02-16T11:31:59.987Z,7.65
2023-02-16T11:34:34.662Z,7.59
2023-02-16T11:37:05.391Z,7.59
2023-02-16T11:39:37.471Z,7.72
2023-02-16T11:42:09.011Z,7.59
2023-02-16T11:44:41.239Z,7.66
2023-02-16T11:47:23.049Z,7.80
2023-02-16T11:50:04.701Z,7.86
2023-02-16T11:52:32.581Z,8.08
2023-02-16T11:55:01.992Z,8.18
2023-02-16T11:57:35.809Z,8.39
2023-02-16T12:00:14.355Z,8.34
2023-02-16T12:03:02.910Z,8.18
2023-02-16T12:06:08.285Z,8.20
2023-02-16T12:08:54.680Z,8.33
2023-02-16T12:11:44.074Z,8.54
2023-02-16T12:14:32.267Z,8.65
2023-02-16T12:17:18.899Z,8.79
2023-02-16T12:19:48.337Z,8.83
2023-02-16T12:22:14.931Z,8.85
2023-02-16T12:25:15.741Z,8.87
2023-02-16T12:28:13.399Z,8.85
2023-02-16T12:31:22.164Z,8.74
2023-02-16T12:34:23.641Z,8.85
2023-02-16T12:37:00.311Z,8.94
2023-02-16T12:39:39.529Z,9.08
2023-02-16T12:42:42.680Z,9.21
2023-02-16T12:45:14.121Z,9.42
2023-02-16T12:47:52.383Z,9.35
2023-02-16T12:50:27.136Z,9.30
2023-02-16T12:52:53.952Z,9.41
2023-02-16T12:55:42.110Z,9.41
2023-02-16T12:58:14.880Z,9.40
2023-02-16T13:00:52.490Z,9.46
2023-02-16T13:03:19.713Z,9.57
2023-02-16T13:05:54.258Z,9.77
2023-02-16T13:08:42.950Z,9.84
2023-02-16T13:11:28.322Z,9.85
2023-02-16T13:14:01.434Z,9.84
2023-02-16T13:16:39.409Z,9.79
2023-02-16T13:19:06.074Z,9.85
2023-02-16T13:22:01.533Z,9.91
2023-02-16T13:24:46.379Z,9.92
2023-02-16T13:27:37.248Z,9.90
2023-02-16T13:30:40.140Z,9.78
2023-02-16T13:33:18.111Z,9.86
2023-02-16T13:36:02.718Z,9.97
2023-02-16T13:38:40.834Z,9.93
2023-02-16T13:41:41.606Z,9.89
2023-02-16T13:44:19.120Z,10.06
2023-02-16T13:46:52.750Z,10.03
2023-02-16T13:49:40.329Z,10.06
2023-02-16T13:52:08.734Z,10.13
2023-02-16T13:54:43.778Z,10.15
2023-02-16T13:57:34.829Z,10.40
2023-02-16T14:00:05.827Z,10.54
2023-02-16T14:02:59.207Z,10.62
2023-02-16T14:05:35.416Z,10.63
2023-02-16T14:08:23.805Z,10.82
2023-02-16T14:10:53.336Z,10.77
2023-02-16T14:13:38.702Z,10.75
2023-02-16T14:16:17.313Z,11.14
2023-02-16T14:18:45.921Z,11.05
2023-02-16T14:21:28.518Z,11.01
2023-02-16T14:23:57.213Z,10.88
2023-02-16T14:26:24.752Z,11.02
2023-02-16T14:29:21.002Z,11.10
2023-02-16T14:31:56.983Z,11.04
2023-02-16T14:34:29.240Z,11.16
2023-02-16T14:37:28.582Z,11.11
2023-02-16T14:40:08.960Z,11.09
2023-02-16T14:42:36.081Z,11.04
2023-02-16T14:45:22.998Z,11.00
2023-02-16T14:48:13.379Z,11.04
2023-02-16T14:51:00.131Z,10.82
2023-02-16T14:53:29.504Z,11.12
2023-02-16T14:56:13.485Z,11.02
2023-02-16T14:59:02.373Z,11.02
2023-02-16T15:01:29.136Z,11.00
2023-02-16T15:03:57.985Z,11.04
2023-02-16T15:06:36.379Z,10.86
2023-02-16T15:09:13.302Z,10.93
2023-02-16T15:12:09.464Z,10.83
2023-02-16T15:14:42.963Z,10.75
2023-02-16T15:17:10.266Z,10.61
2023-02-16T15:19:37.367Z,10.72
2023-02-16T15:22:13.203Z,10.92
2023-02-16T15:24:41.250Z,10.60
2023-02-16T15:27:20.956Z,10.72
2023-02-16T15:30:20.353Z,11.27
2023-02-16T15:32:59.351Z,11.31
2023-02-16T15:35:29.752Z,11.35
2023-02-16T15:38:12.798Z,11.16
2023-02-16T15:40:40.059Z,11.27
2023-02-16T15:43:33.978Z,11.04
2023-02-16T15:46:03.315Z,11.08
2023-02-16T15:48:36.643Z,11.12
2023-02-16T15:51:20.860Z,10.88
2023-02-16T15:54:04.366Z,11.03
2023-02-16T15:56:44.795Z,10.94
2023-02-16T15:59:32.477Z,11.00
2023-02-16T16:02:03.743Z,11.03
2023-02-16T16:04:32.099Z,11.00
2023-02-16T16:07:00.045Z,11.02
2023-02-16T16:09:30.024Z,10.83
2023-02-16T16:12:03.929Z,10.87
2023-02-16T16:14:34.838Z,10.91
2023-02-16T16:17:03.229Z,10.93
2023-02-16T16:19:38.320Z,10.96
2023-02-16T16:22:29.653Z,10.85
2023-02-16T16:24:56.473Z,10.66
2023-02-16T16:27:33.213Z,10.77
2023-02-16T16:30:28.656Z,10.84
2023-02-16T16:33:03.486Z,10.73
2023-02-16T16:35:47.450Z,10.65
2023-02-16T16:38:26.241Z,10.58
2023-02-16T16:40:58.965Z,10.61
2023-02-16T16:43:51.843Z,10.32
2023-02-16T16:46:25.927Z,10.22
2023-02-16T16:48:56.608Z,10.19
2023-02-16T16:51:31.164Z,10.25
2023-02-16T16:54:00.746Z,10.21
2023-02-16T16:56:29.736Z,10.13
2023-02-16T16:58:58.524Z,10.05
2023-02-16T17:01:29.309Z,9.96
2023-02-16T17:03:56.506Z,9.89
2023-02-16T17:06:24.130Z,9.83
2023-02-16T17:08:51.031Z,9.83
2023-02-16T17:11:33.285Z,9.87
2023-02-16T17:14:14.277Z,9.86
2023-02-16T17:16:44.331Z,9.80
2023-02-16T17:19:16.968Z,10.12
2023-02-16T17:21:44.768Z,10.38
2023-02-16T17:24:12.900Z,10.44
2023-02-16T17:26:39.811Z,10.40
2023-02-16T17:29:07.157Z,10.31
2023-02-16T17:31:34.358Z,10.10
2023-02-16T17:34:01.358Z,9.91
2023-02-16T17:36:28.777Z,9.83
2023-02-16T17:38:55.507Z,9.84
2023-02-16T17:41:25.290Z,9.79
2023-02-16T17:43:52.264Z,9.77
2023-02-16T17:46:20.235Z,9.79
2023-02-16T17:48:53.374Z,9.78
2023-02-16T17:51:22.942Z,9.72
2023-02-16T17:53:49.919Z,9.68
2023-02-16T17:56:19.922Z,9.76
2023-02-16T17:58:46.531Z,9.75
2023-02-16T18:01:15.258Z,9.75
2023-02-16T18:03:42.183Z,9.79
2023-02-16T18:06:18.438Z,9.77
2023-02-16T18:08:46.243Z,9.79
2023-02-16T18:11:13.209Z,9.75
2023-02-16T18:13:40.077Z,9.75
2023-02-16T18:16:08.168Z,9.80
2023-02-16T18:18:39.017Z,9.76
2023-02-16T18:21:06.060Z,9.76
2023-02-16T18:23:33.036Z,9.82
2023-02-16T18:25:59.860Z,9.81
2023-02-16T18:28:30.707Z,9.83
2023-02-16T18:30:58.185Z,9.89
2023-02-16T18:33:25.493Z,9.91
2023-02-16T18:35:54.488Z,9.98
2023-02-16T18:38:22.503Z,9.97
2023-02-16T18:40:51.519Z,10.24
2023-02-16T18:43:18.254Z,10.09
2023-02-16T18:45:44.835Z,10.09
2023-02-16T18:48:11.521Z,10.07
2023-02-16T18:50:38.698Z,10.06
2023-02-16T18:53:06.185Z,10.05
2023-02-16T18:55:33.323Z,9.97
2023-02-16T18:58:01.385Z,9.95
2023-02-16T19:00:28.159Z,9.99
2023-02-16T19:02:55.891Z,9.95
2023-02-16T19:05:23.383Z,10.00
2023-02-16T19:07:50.838Z,10.05
2023-02-16T19:10:18.838Z,10.11
2023-02-16T19:12:45.449Z,10.12
2023-02-16T19:15:12.188Z,10.00
2023-02-16T19:17:39.109Z,10.10
2023-02-16T19:20:14.453Z,10.16
2023-02-16T19:22:41.327Z,10.15
2023-02-16T19:25:08.163Z,10.12
2023-02-16T19:27:35.150Z,10.17
2023-02-16T19:30:01.785Z,10.15
2023-02-16T19:32:30.969Z,10.09
2023-02-16T19:34:57.635Z,10.06
2023-02-16T19:37:24.472Z,10.11
2023-02-16T19:39:51.247Z,10.12
2023-02-16T19:42:17.878Z,10.08
2023-02-16T19:44:44.473Z,10.09
2023-02-16T19:47:11.153Z,10.11
2023-02-16T19:49:38.202Z,10.04
2023-02-16T19:52:05.244Z,10.03
2023-02-16T19:54:34.837Z,10.00
2023-02-16T19:57:03.143Z,9.99
2023-02-16T19:59:31.414Z,9.97
2023-02-16T20:01:58.982Z,9.93
2023-02-16T20:04:25.941Z,9.96
2023-02-16T20:06:54.341Z,9.95
2023-02-16T20:09:21.898Z,9.95
2023-02-16T20:11:49.564Z,9.95
2023-02-16T20:14:16.542Z,9.98
2023-02-16T20:16:43.420Z,10.02
2023-02-16T20:19:10.736Z,9.96
2023-02-16T20:21:37.730Z,10.02
2023-02-16T20:24:05.652Z,10.08
2023-02-16T20:26:52.001Z,10.12
2023-02-16T20:29:20.558Z,10.15
2023-02-16T20:31:52.943Z,10.25
2023-02-16T20:34:20.012Z,10.27
2023-02-16T20:36:46.706Z,10.32
2023-02-16T20:39:13.443Z,10.33
2023-02-16T20:41:40.895Z,10.24
2023-02-16T20:44:08.339Z,10.18
2023-02-16T20:46:35.085Z,10.15
2023-02-16T20:49:04.423Z,10.20
2023-02-16T20:51:31.635Z,10.18
2023-02-16T20:54:00.365Z,10.22
2023-02-16T20:56:28.310Z,10.25
2023-02-16T20:58:56.833Z,10.28
2023-02-16T21:01:30.636Z,10.23
2023-02-16T21:03:58.583Z,10.24
2023-02-16T21:06:25.749Z,10.25
2023-02-16T21:08:52.567Z,10.24
2023-02-16T21:11:19.528Z,10.23
2023-02-16T21:13:46.407Z,10.25
2023-02-16T21:16:14.146Z,10.49
2023-02-16T21:18:41.188Z,10.34
2023-02-16T21:21:14.988Z,10.34
2023-02-16T21:23:47.959Z,10.33
2023-02-16T21:26:15.874Z,10.42
2023-02-16T21:28:42.672Z,10.50
2023-02-16T21:31:15.536Z,10.67
2023-02-16T21:33:42.629Z,10.51
2023-02-16T21:36:12.432Z,10.65
2023-02-16T21:38:40.240Z,10.62
2023-02-16T21:41:24.784Z,10.59
2023-02-16T21:44:02.205Z,10.60
2023-02-16T21:46:37.756Z,10.52
2023-02-16T21:49:07.289Z,10.43
2023-02-16T21:51:36.846Z,10.55
2023-02-16T21:54:06.508Z,10.61
2023-02-16T21:56:45.234Z,10.78
2023-02-16T21:59:15.259Z,10.47
2023-02-16T22:01:48.312Z,10.57
2023-02-16T22:04:18.014Z,10.41
2023-02-16T22:06:46.872Z,10.61
2023-02-16T22:09:22.852Z,10.68
2023-02-16T22:11:53.154Z,10.79
2023-02-16T22:14:19.904Z,10.69
2023-02-16T22:16:48.173Z,10.70
2023-02-16T22:19:17.670Z,10.81
2023-02-16T22:21:45.856Z,10.68
2023-02-16T22:24:14.741Z,10.61
2023-02-16T22:26:42.424Z,10.72
2023-02-16T22:29:09.650Z,10.69
2023-02-16T22:31:37.183Z,10.70
2023-02-16T22:34:11.661Z,10.63
2023-02-16T22:36:40.029Z,10.65
2023-02-16T22:39:07.430Z,10.72
2023-02-16T22:41:34.973Z,10.73
2023-02-16T22:44:01.563Z,10.76
2023-02-16T22:46:29.501Z,10.55
2023-02-16T22:49:00.893Z,10.70
2023-02-16T22:51:29.233Z,10.59
2023-02-16T22:53:58.697Z,10.73
2023-02-16T22:56:26.853Z,10.56
2023-02-16T22:58:57.394Z,10.64
2023-02-16T23:01:25.495Z,10.50
2023-02-16T23:03:56.508Z,10.66
2023-02-16T23:06:29.190Z,10.59
2023-02-16T23:09:05.136Z,10.55
2023-02-16T23:11:32.777Z,10.55
2023-02-16T23:13:59.428Z,10.70
2023-02-16T23:16:27.324Z,10.47
2023-02-16T23:18:58.916Z,10.47
2023-02-16T23:21:28.931Z,10.47
2023-02-16T23:23:56.238Z,10.35
2023-02-16T23:26:25.875Z,10.49
2023-02-16T23:28:54.571Z,10.54
2023-02-16T23:31:21.727Z,10.51
2023-02-16T23:33:49.738Z,10.50
2023-02-16T23:36:16.636Z,10.88
2023-02-16T23:38:43.486Z,10.65
2023-02-16T23:41:13.250Z,10.73
2023-02-16T23:43:40.304Z,10.59
2023-02-16T23:46:07.667Z,10.52
2023-02-16T23:48:34.491Z,10.62
2023-02-16T23:51:01.102Z,10.65
2023-02-16T23:53:28.755Z,10.67
2023-02-16T23:56:11.544Z,10.67
2023-02-16T23:58:44.980Z,10.54
